Time;durP1;ratioP1;P1;durP2;ratioP2;P2;SDS_P1;SDS_P2;PMS_P1;PMS_P2;Temp;Humidity;BMP_temperature;BMP_pressure;BME280_temperature;BME280_humidity;BME280_pressure;Samples;Min_cycle;Max_cycle;Signal;HPM_P1;HPM_P2
2023/04/29 00:02:01;;;;;;;9.77;7.38;;;;;;;6.56;100.00;101126.91;5018480;28;20211;-41
2023/04/29 00:04:34;;;;;;;11.30;7.55;;;;;;;6.60;100.00;101112.63;5029392;28;20266;-40
2023/04/29 00:07:03;;;;;;;9.05;7.55;;;;;;;6.60;100.00;101123.28;5032810;28;20207;-43
2023/04/29 00:09:33;;;;;;;8.93;7.03;;;;;;;6.74;100.00;101108.84;5031286;28;20219;-43
2023/04/29 00:12:03;;;;;;;7.43;6.40;;;;;;;6.78;100.00;101115.88;5031382;28;20799;-42
2023/04/29 00:14:30;;;;;;;10.32;7.00;;;;;;;6.77;100.00;101109.66;5032362;28;20187;-42
2023/04/29 00:16:57;;;;;;;8.57;7.68;;;;;;;6.75;100.00;101111.44;5032554;28;20559;-46
2023/04/29 00:19:23;;;;;;;8.35;6.50;;;;;;;6.78;100.00;101105.22;5032516;28;20156;-42
2023/04/29 00:21:48;;;;;;;11.40;7.10;;;;;;;6.68;100.00;101098.28;5031544;28;20228;-44
2023/04/29 00:24:25;;;;;;;9.07;6.90;;;;;;;6.57;100.00;101101.16;5032411;28;20163;-48
2023/04/29 00:26:52;;;;;;;9.75;6.43;;;;;;;6.50;100.00;101092.38;5020721;28;20648;-42
2023/04/29 00:29:22;;;;;;;12.13;7.00;;;;;;;6.50;100.00;101107.50;5031292;28;20179;-45
2023/04/29 00:31:55;;;;;;;10.00;6.63;;;;;;;6.49;100.00;101095.06;5032107;28;20687;-44
2023/04/29 00:34:40;;;;;;;8.80;6.30;;;;;;;6.45;100.00;101104.91;5034137;28;20223;-42
2023/04/29 00:37:06;;;;;;;7.35;6.32;;;;;;;6.51;100.00;101107.44;5027384;28;20168;-41
2023/04/29 00:39:31;;;;;;;8.68;6.65;;;;;;;6.44;100.00;101113.78;5036058;28;20230;-42
2023/04/29 00:42:03;;;;;;;8.23;6.43;;;;;;;6.26;100.00;101108.78;5033417;28;20261;-46
2023/04/29 00:44:35;;;;;;;11.50;7.28;;;;;;;6.19;100.00;101122.16;5032351;28;20200;-41
2023/04/29 00:47:02;;;;;;;13.88;7.25;;;;;;;6.19;100.00;101122.16;5023218;28;20225;-43
2023/04/29 00:49:38;;;;;;;8.75;6.93;;;;;;;6.20;100.00;101123.03;5035814;28;20714;-43
2023/04/29 00:52:11;;;;;;;13.73;7.80;;;;;;;6.19;100.00;101124.81;5031447;28;20300;-44
2023/04/29 00:54:40;;;;;;;10.27;6.88;;;;;;;6.15;100.00;101128.44;5028951;28;20192;-44
2023/04/29 00:57:06;;;;;;;12.18;6.90;;;;;;;6.16;100.00;101139.94;5040829;28;20278;-42
2023/04/29 00:59:33;;;;;;;12.15;7.03;;;;;;;6.16;100.00;101145.25;5020602;28;20286;-48
2023/04/29 01:05:10;;;;;;;9.18;7.18;;;;;;;6.15;100.00;101149.72;5019368;28;20275;-44
2023/04/29 01:08:12;;;;;;;9.07;6.60;;;;;;;6.08;100.00;101156.03;5031459;28;20200;-42
2023/04/29 01:11:06;;;;;;;12.77;7.43;;;;;;;6.02;100.00;101155.25;5019179;28;20203;-48
2023/04/29 01:13:53;;;;;;;11.52;6.50;;;;;;;6.02;100.00;101160.56;5028557;28;20189;-42
2023/04/29 01:16:28;;;;;;;8.25;6.40;;;;;;;5.99;100.00;101164.13;5016534;28;20185;-43
2023/04/29 01:19:05;;;;;;;7.70;6.90;;;;;;;6.06;100.00;101162.28;5024114;28;20601;-46
2023/04/29 01:21:45;;;;;;;8.75;6.38;;;;;;;6.13;100.00;101154.16;5028797;28;20195;-45
2023/04/29 01:24:11;;;;;;;13.98;6.50;;;;;;;6.12;100.00;101155.09;5025558;28;20672;-44
2023/04/29 01:26:37;;;;;;;9.30;6.72;;;;;;;6.21;100.00;101150.50;5031165;28;20272;-44
2023/04/29 01:29:39;;;;;;;7.32;5.97;;;;;;;6.30;100.00;101151.28;5010990;28;20185;-43
2023/04/29 01:32:16;;;;;;;9.68;6.03;;;;;;;6.33;100.00;101145.00;5020201;28;20207;-42
2023/04/29 01:34:58;;;;;;;9.73;6.75;;;;;;;6.32;100.00;101146.81;5028609;28;20218;-42
2023/04/29 01:37:34;;;;;;;10.05;6.07;;;;;;;6.27;100.00;101137.13;5021327;28;20363;-49
2023/04/29 01:40:12;;;;;;;8.35;5.38;;;;;;;6.27;100.00;101153.09;5025680;28;20171;-42
2023/04/29 01:43:00;;;;;;;7.85;6.00;;;;;;;6.02;100.00;101145.47;5021749;28;20191;-45
2023/04/29 01:45:27;;;;;;;15.13;6.82;;;;;;;6.10;100.00;101138.28;5029274;28;20192;-43
2023/04/29 01:47:56;;;;;;;8.05;6.00;;;;;;;6.15;100.00;101155.03;5032276;28;20273;-47
2023/04/29 01:50:23;;;;;;;8.05;6.18;;;;;;;6.22;100.00;101152.28;5033344;28;20227;-45
2023/04/29 01:52:49;;;;;;;9.00;6.32;;;;;;;6.15;100.00;101155.03;5033138;28;20194;-44
2023/04/29 01:55:15;;;;;;;8.23;5.97;;;;;;;6.20;100.00;101154.97;5032317;28;20226;-45
2023/04/29 01:57:49;;;;;;;7.63;5.35;;;;;;;6.24;100.00;101162.00;5040220;28;20183;-44
2023/04/29 02:00:43;;;;;;;9.45;6.55;;;;;;;6.22;100.00;101146.97;5021298;28;20227;-46
2023/04/29 02:03:10;;;;;;;13.55;6.78;;;;;;;6.15;100.00;101155.03;5026003;28;20180;-50
2023/04/29 02:05:39;;;;;;;7.07;5.47;;;;;;;6.18;100.00;101162.94;5015449;28;20247;-43
2023/04/29 02:08:06;;;;;;;7.97;5.43;;;;;;;6.27;100.00;101163.72;5028036;28;20258;-44
2023/04/29 02:10:35;;;;;;;8.27;6.43;;;;;;;6.26;100.00;101164.66;5032612;28;20218;-45
2023/04/29 02:13:15;;;;;;;6.95;5.68;;;;;;;6.24;100.00;101172.63;5031201;28;20257;-41
2023/04/29 02:15:41;;;;;;;6.65;5.80;;;;;;;6.27;100.00;101169.03;5035181;28;20698;-45
2023/04/29 02:18:07;;;;;;;7.38;5.72;;;;;;;6.26;100.00;101181.47;5034222;28;20168;-44
2023/04/29 02:20:32;;;;;;;9.93;6.03;;;;;;;6.12;100.00;101179.03;5039186;28;20201;-46
2023/04/29 02:22:58;;;;;;;8.65;5.78;;;;;;;6.11;100.00;101177.25;5033009;28;20226;-44
2023/04/29 02:25:23;;;;;;;12.48;7.20;;;;;;;6.04;100.00;101180.91;5041715;28;20195;-44
2023/04/29 02:27:49;;;;;;;11.90;7.15;;;;;;;6.12;100.00;101176.38;5033957;28;20211;-47
2023/04/29 02:30:15;;;;;;;8.70;7.20;;;;;;;6.13;100.00;101182.56;5038272;28;20619;-48
2023/04/29 02:32:40;;;;;;;9.82;6.28;;;;;;;6.17;100.00;101177.19;5027740;28;20187;-44
2023/04/29 02:35:07;;;;;;;7.75;6.95;;;;;;;6.21;100.00;101182.44;5039945;28;20503;-44
2023/04/29 02:37:33;;;;;;;8.30;6.28;;;;;;;6.25;100.00;101176.16;5030080;28;20617;-45
2023/04/29 02:39:58;;;;;;;9.18;6.47;;;;;;;6.25;100.00;101185.03;5032553;28;20188;-44
2023/04/29 02:42:24;;;;;;;8.70;6.50;;;;;;;6.27;100.00;101187.66;5027035;28;20192;-45
2023/04/29 02:44:49;;;;;;;9.95;6.32;;;;;;;6.25;100.00;101181.50;5030597;28;20338;-45
2023/04/29 02:47:15;;;;;;;10.25;6.70;;;;;;;6.29;100.00;101186.75;5020605;28;20207;-43
2023/04/29 02:49:40;;;;;;;12.43;6.03;;;;;;;6.14;100.00;101186.97;5040130;28;20187;-43
2023/04/29 02:52:06;;;;;;;7.82;6.20;;;;;;;6.20;100.00;101184.22;5032678;28;20279;-44
2023/04/29 02:54:33;;;;;;;8.98;5.93;;;;;;;6.25;100.00;101198.31;5029112;28;20671;-43
2023/04/29 02:56:58;;;;;;;9.35;6.00;;;;;;;6.28;100.00;101192.13;5040602;28;20191;-46
2023/04/29 02:59:24;;;;;;;12.20;6.15;;;;;;;6.23;100.00;101194.84;5021650;28;20183;-48
2023/04/29 03:01:49;;;;;;;9.38;5.75;;;;;;;6.26;100.00;101199.22;5032584;28;20200;-44
2023/04/29 03:04:15;;;;;;;11.60;5.70;;;;;;;6.30;100.00;101199.16;5037888;28;20271;-45
2023/04/29 03:06:40;;;;;;;10.48;5.82;;;;;;;6.27;100.00;101195.66;5043078;28;20301;-47
2023/04/29 03:09:06;;;;;;;7.97;5.90;;;;;;;6.21;100.00;101203.72;5022215;28;20608;-44
2023/04/29 03:11:31;;;;;;;7.40;6.03;;;;;;;6.25;100.00;101206.31;5032968;28;20189;-44
2023/04/29 03:13:57;;;;;;;10.43;6.22;;;;;;;6.24;100.00;101209.88;5019045;28;20199;-44
2023/04/29 03:16:23;;;;;;;10.90;7.32;;;;;;;6.27;100.00;101208.97;5035434;28;20187;-46
2023/04/29 03:18:48;;;;;;;16.80;8.00;;;;;;;6.40;100.00;101207.88;5047941;28;20694;-49
2023/04/29 03:21:14;;;;;;;14.63;7.55;;;;;;;6.31;100.00;101208.88;5036260;28;20191;-44
2023/04/29 03:23:40;;;;;;;12.88;8.63;;;;;;;6.37;100.00;101203.47;5032951;28;20187;-45
2023/04/29 03:26:07;;;;;;;17.52;8.82;;;;;;;6.42;100.00;101206.06;5031453;28;20203;-44
2023/04/29 03:28:32;;;;;;;14.75;8.70;;;;;;;6.40;100.00;101211.41;5032656;28;20855;-43
2023/04/29 03:30:58;;;;;;;10.40;8.55;;;;;;;6.42;100.00;101202.53;5030146;28;20635;-48
2023/04/29 03:33:24;;;;;;;11.10;8.90;;;;;;;6.39;100.00;101215.00;5034135;28;20196;-46
2023/04/29 03:35:50;;;;;;;12.10;8.18;;;;;;;6.42;100.00;101211.41;5020260;28;20192;-47
2023/04/29 03:38:41;;;;;;;17.33;8.48;;;;;;;6.46;100.00;101220.22;5026153;28;20726;-43
2023/04/29 03:41:07;;;;;;;10.82;8.32;;;;;;;6.46;100.00;101231.75;5042171;28;20561;-43
2023/04/29 03:43:33;;;;;;;15.48;8.75;;;;;;;6.51;100.00;101234.34;5037174;28;20191;-45
2023/04/29 03:46:00;;;;;;;13.05;7.72;;;;;;;6.57;100.00;101234.25;5021504;28;20204;-48
2023/04/29 03:48:25;;;;;;;11.45;7.93;;;;;;;6.57;100.00;101235.13;5020489;28;20216;-45
2023/04/29 03:50:52;;;;;;;10.60;6.88;;;;;;;6.64;100.00;101238.56;5045682;28;20562;-43
2023/04/29 03:53:17;;;;;;;10.90;7.28;;;;;;;6.69;100.00;101241.16;5028765;28;20175;-45
2023/04/29 03:55:43;;;;;;;7.78;6.90;;;;;;;6.74;100.00;101237.53;5035566;28;20249;-44
2023/04/29 03:58:09;;;;;;;9.32;7.07;;;;;;;6.77;100.00;101228.59;5034924;28;20184;-43
2023/04/29 04:00:35;;;;;;;11.63;7.15;;;;;;;6.79;100.00;101229.47;5033504;28;20267;-44
2023/04/29 04:03:05;;;;;;;8.55;7.07;;;;;;;6.81;100.00;101240.97;5039304;28;20183;-46
2023/04/29 04:05:30;;;;;;;15.23;7.75;;;;;;;6.85;100.00;101240.03;5037075;28;20271;-47
2023/04/29 04:08:02;;;;;;;8.60;7.18;;;;;;;6.86;100.00;101235.56;5021451;28;20237;-49
2023/04/29 04:10:37;;;;;;;13.85;8.63;;;;;;;6.85;100.00;101241.81;5020975;28;20623;-45
2023/04/29 04:13:13;;;;;;;14.07;9.50;;;;;;;6.87;100.00;101240.88;5036508;28;20188;-42
2023/04/29 04:15:39;;;;;;;13.75;10.07;;;;;;;6.89;100.00;101246.19;5025655;28;20207;-42
2023/04/29 04:18:05;;;;;;;11.95;8.90;;;;;;;6.89;100.00;101243.53;5041642;28;20204;-47
2023/04/29 04:20:30;;;;;;;14.88;9.35;;;;;;;6.92;100.00;101265.66;5034176;28;20307;-43
2023/04/29 04:22:56;;;;;;;11.75;9.18;;;;;;;6.89;100.00;101255.06;5036534;28;20203;-45
2023/04/29 04:25:25;;;;;;;15.73;8.68;;;;;;;6.94;100.00;101254.97;5036883;28;20179;-46
2023/04/29 04:27:54;;;;;;;8.77;7.38;;;;;;;6.95;100.00;101252.28;5037520;28;20207;-43
2023/04/29 04:30:41;;;;;;;11.60;6.47;;;;;;;6.96;100.00;101259.38;5031419;28;20254;-43
2023/04/29 04:33:09;;;;;;;10.38;7.68;;;;;;;6.97;100.00;101255.78;5030858;28;20187;-41
2023/04/29 04:35:42;;;;;;;10.52;6.38;;;;;;;7.12;100.00;101259.13;5025641;28;20183;-43
2023/04/29 04:38:08;;;;;;;10.00;6.60;;;;;;;7.17;100.00;101275.88;5022208;28;20640;-50
2023/04/29 04:40:33;;;;;;;11.07;6.63;;;;;;;7.16;100.00;101269.69;5034568;28;20438;-44
2023/04/29 04:43:31;;;;;;;8.98;5.72;;;;;;;7.10;100.00;101274.25;5019991;28;20184;-43
2023/04/29 04:45:57;;;;;;;9.25;6.55;;;;;;;7.15;100.00;101259.03;5037738;28;20226;-43
2023/04/29 04:48:23;;;;;;;8.60;6.13;;;;;;;7.10;100.00;101274.25;5031276;28;20184;-44
2023/04/29 04:50:50;;;;;;;7.68;6.60;;;;;;;7.09;100.00;101267.16;5033101;28;20199;-43
2023/04/29 04:53:16;;;;;;;9.95;5.85;;;;;;;7.10;100.00;101268.91;5025916;28;20187;-44
2023/04/29 04:55:51;;;;;;;8.27;6.60;;;;;;;7.06;100.00;101264.53;5034308;28;20201;-43
2023/04/29 04:58:17;;;;;;;9.32;6.38;;;;;;;7.07;100.00;101276.97;5030812;28;20271;-42
2023/04/29 05:00:44;;;;;;;9.10;6.22;;;;;;;7.09;100.00;101284.03;5033871;28;20204;-43
2023/04/29 05:03:09;;;;;;;12.57;6.30;;;;;;;7.13;100.00;101287.53;5037547;28;20672;-42
2023/04/29 05:05:35;;;;;;;8.48;6.60;;;;;;;7.14;100.00;101295.47;5022410;28;20188;-43
2023/04/29 05:08:00;;;;;;;9.02;7.10;;;;;;;7.19;100.00;101290.06;5035903;28;20254;-42
2023/04/29 05:10:36;;;;;;;10.10;6.65;;;;;;;7.18;100.00;101306.97;5036151;28;20199;-42
2023/04/29 05:13:04;;;;;;;10.48;6.70;;;;;;;7.21;100.00;101312.25;5042059;28;20197;-42
2023/04/29 05:15:29;;;;;;;9.02;6.78;;;;;;;7.22;100.00;101314.91;5041519;28;20558;-44
2023/04/29 05:17:59;;;;;;;11.20;6.65;;;;;;;7.20;nan;101311.38;5034851;28;20605;-43
2023/04/29 05:20:24;;;;;;;11.07;6.15;;;;;;;7.23;100.00;101315.75;5035168;28;20551;-43
2023/04/29 05:22:50;;;;;;;9.32;6.75;;;;;;;7.26;100.00;101325.50;5031040;28;20184;-44
2023/04/29 05:25:16;;;;;;;15.18;7.32;;;;;;;7.26;100.00;101321.06;5039358;28;20190;-45
2023/04/29 05:27:41;;;;;;;10.27;6.13;;;;;;;7.26;100.00;101336.16;5034379;28;20683;-47
2023/04/29 05:30:11;;;;;;;8.75;6.22;;;;;;;7.27;100.00;101324.59;5039082;28;20621;-44
2023/04/29 05:32:37;;;;;;;9.15;5.97;;;;;;;7.32;100.00;101323.59;5031680;28;20206;-43
2023/04/29 05:35:05;;;;;;;9.50;6.10;;;;;;;7.37;100.00;101323.56;5034405;28;20288;-44
2023/04/29 05:37:31;;;;;;;10.23;6.10;;;;;;;7.42;100.00;101325.22;5037908;28;20218;-46
2023/04/29 05:40:07;;;;;;;8.40;6.13;;;;;;;7.52;100.00;101330.38;5016197;28;20183;-45
2023/04/29 05:42:33;;;;;;;8.57;6.30;;;;;;;7.56;100.00;101322.28;5037245;28;20194;-42
2023/04/29 05:45:00;;;;;;;9.05;6.25;;;;;;;7.70;100.00;101327.41;5030998;28;20196;-44
2023/04/29 05:47:25;;;;;;;11.40;5.88;;;;;;;7.74;100.00;101320.19;5017272;28;20271;-43
2023/04/29 05:49:51;;;;;;;9.00;5.70;;;;;;;7.89;100.00;101325.25;5040157;28;20281;-45
2023/04/29 05:52:16;;;;;;;6.60;5.40;;;;;;;8.11;100.00;101332.84;5029114;28;20180;-47
2023/04/29 05:58:25;;;;;;;9.05;6.05;;;;;;;8.48;98.71;101332.97;5026515;28;20171;-46
2023/04/29 06:00:51;;;;;;;11.68;5.88;;;;;;;8.60;97.48;101334.53;5031394;28;20203;-44
2023/04/29 06:03:20;;;;;;;13.77;5.75;;;;;;;8.90;97.04;101343.66;5030313;28;20226;-45
2023/04/29 06:05:50;;;;;;;7.70;5.43;;;;;;;8.68;97.43;101339.69;5032032;28;20647;-44
2023/04/29 06:08:39;;;;;;;10.20;6.00;;;;;;;8.57;97.83;101343.50;5018933;28;20220;-44
2023/04/29 06:11:14;;;;;;;7.60;6.28;;;;;;;8.53;98.25;101354.28;5037919;28;20226;-44
2023/04/29 06:13:40;;;;;;;11.15;6.95;;;;;;;8.81;98.79;101355.44;5036319;28;20179;-43
2023/04/29 06:16:06;;;;;;;11.93;7.13;;;;;;;8.79;98.50;101361.69;5034504;28;20283;-46
2023/04/29 06:18:33;;;;;;;12.82;8.10;;;;;;;8.81;98.62;101362.53;5014282;28;20183;-44
2023/04/29 06:20:58;;;;;;;11.00;8.10;;;;;;;8.88;98.93;101361.50;5035771;28;20529;-44
2023/04/29 06:23:24;;;;;;;10.07;7.22;;;;;;;9.03;97.40;101361.16;5024513;28;20700;-44
2023/04/29 06:25:50;;;;;;;11.68;7.15;;;;;;;9.13;96.10;101361.81;5030107;28;20179;-48
2023/04/29 06:28:16;;;;;;;11.27;7.75;;;;;;;9.42;95.90;101370.91;5025659;28;20219;-47
2023/04/29 06:30:42;;;;;;;10.13;7.20;;;;;;;9.70;95.03;101358.59;5035364;28;20672;-46
2023/04/29 06:33:08;;;;;;;42.65;38.65;;;;;;;9.48;93.79;101374.31;5035741;28;20712;-48
2023/04/29 06:35:39;;;;;;;14.35;12.32;;;;;;;9.37;93.75;101373.72;5028758;28;20175;-48
2023/04/29 06:38:12;;;;;;;13.07;8.07;;;;;;;9.29;93.74;101364.97;5031534;28;20909;-46
2023/04/29 06:40:40;;;;;;;10.23;7.97;;;;;;;9.38;93.95;101370.13;5027836;28;20365;-42
2023/04/29 06:43:18;;;;;;;11.52;7.60;;;;;;;9.72;93.17;101363.91;5035044;28;20198;-42
2023/04/29 06:46:02;;;;;;;11.10;7.75;;;;;;;9.73;92.14;101365.69;5033149;28;20210;-47
2023/04/29 06:48:36;;;;;;;8.50;7.60;;;;;;;9.68;91.22;101367.59;5031587;28;20207;-45
2023/04/29 06:51:03;;;;;;;8.63;7.30;;;;;;;10.05;90.54;101351.41;5034824;28;20226;-45
2023/04/29 06:53:29;;;;;;;10.52;8.15;;;;;;;10.23;88.96;101368.78;5022024;28;20176;-47
2023/04/29 06:55:54;;;;;;;11.93;7.93;;;;;;;10.25;87.94;101361.56;5032713;28;20670;-44
2023/04/29 06:58:20;;;;;;;10.32;8.68;;;;;;;10.20;87.09;101354.59;5032018;28;20180;-43
2023/04/29 07:00:50;;;;;;;9.88;7.68;;;;;;;9.94;86.52;101364.22;5029490;28;20291;-43
2023/04/29 07:03:17;;;;;;;12.80;7.97;;;;;;;9.76;86.91;101373.63;5030349;28;20204;-45
2023/04/29 07:05:44;;;;;;;12.20;8.20;;;;;;;9.93;87.45;101374.97;5032052;28;20668;-44
2023/04/29 07:11:56;;;;;;;11.65;7.65;;;;;;;10.02;88.47;101385.44;5026077;28;20314;-41
2023/04/29 07:14:22;;;;;;;10.00;7.95;;;;;;;9.86;88.30;101388.53;5030367;28;20576;-45
2023/04/29 07:16:53;;;;;;;8.35;7.32;;;;;;;10.01;88.07;101389.03;5036628;28;20175;-48
2023/04/29 07:19:18;;;;;;;12.40;7.70;;;;;;;10.02;86.41;101380.09;5035836;28;20238;-46
2023/04/29 07:21:44;;;;;;;8.48;7.50;;;;;;;10.13;85.89;101383.34;5032031;28;20200;-46
2023/04/29 07:24:10;;;;;;;8.52;7.40;;;;;;;10.06;85.77;101376.41;5036871;28;20266;-48
2023/04/29 07:26:35;;;;;;;9.02;7.30;;;;;;;10.07;85.07;101376.34;5027191;28;20189;-43
2023/04/29 07:29:01;;;;;;;9.55;7.15;;;;;;;10.72;85.36;101387.94;5034354;28;20683;-45
2023/04/29 07:31:27;;;;;;;10.13;7.50;;;;;;;10.89;84.36;101391.00;5022300;28;20604;-47
2023/04/29 07:33:54;;;;;;;10.82;7.15;;;;;;;11.02;83.59;101380.78;5029443;28;20211;-46
2023/04/29 07:36:19;;;;;;;9.23;7.03;;;;;;;11.00;82.32;101385.31;5039106;28;20188;-44
2023/04/29 07:38:45;;;;;;;8.18;6.45;;;;;;;11.30;81.48;101379.88;5033676;28;20232;-45
2023/04/29 07:41:10;;;;;;;9.77;6.47;;;;;;;10.47;80.32;101375.28;5024370;28;20207;-43
2023/04/29 07:43:36;;;;;;;10.40;6.80;;;;;;;9.96;80.93;101381.13;5036788;28;20563;-44
2023/04/29 07:46:01;;;;;;;9.00;7.63;;;;;;;9.93;81.80;101391.91;5039713;28;20266;-49
2023/04/29 07:48:27;;;;;;;8.75;6.93;;;;;;;10.18;82.82;101391.25;5036091;28;20221;-46
2023/04/29 07:50:53;;;;;;;11.18;6.88;;;;;;;10.82;82.82;101404.63;5029130;28;20271;-44
2023/04/29 07:53:19;;;;;;;9.63;7.50;;;;;;;11.02;82.45;101393.28;5033242;28;20602;-42
2023/04/29 07:55:44;;;;;;;11.85;7.25;;;;;;;11.31;81.70;101390.56;5037934;28;20178;-45
2023/04/29 07:58:11;;;;;;;9.18;7.57;;;;;;;11.58;81.53;101400.44;5034773;28;20188;-41
2023/04/29 08:00:37;;;;;;;9.50;7.30;;;;;;;11.54;80.76;101394.28;5036332;28;20577;-42
2023/04/29 08:03:04;;;;;;;10.55;6.63;;;;;;;11.80;78.96;101392.53;5025738;28;20189;-44
2023/04/29 08:05:31;;;;;;;10.30;7.00;;;;;;;12.39;78.07;101394.94;5034206;28;20194;-45
2023/04/29 08:07:56;;;;;;;10.27;6.78;;;;;;;12.04;76.92;101385.47;5033351;28;20615;-44
2023/04/29 08:10:24;;;;;;;10.40;6.65;;;;;;;12.03;75.97;101379.22;5018725;28;20277;-47
2023/04/29 08:12:50;;;;;;;9.43;7.07;;;;;;;12.05;75.09;101373.81;5033536;28;20184;-45
2023/04/29 08:15:17;;;;;;;9.68;6.75;;;;;;;11.93;74.99;101392.09;5032457;28;20175;-43
2023/04/29 08:17:43;;;;;;;7.47;6.35;;;;;;;11.77;74.27;101382.78;5037541;28;20187;-45
2023/04/29 08:20:09;;;;;;;8.73;6.45;;;;;;;11.32;74.81;101391.44;5031702;28;20242;-43
2023/04/29 08:22:35;;;;;;;10.68;6.82;;;;;;;10.95;76.24;101403.31;5032201;28;20191;-46
2023/04/29 08:25:02;;;;;;;8.35;7.45;;;;;;;10.54;76.71;101405.44;5039006;28;20188;-43
2023/04/29 08:27:27;;;;;;;7.72;6.82;;;;;;;10.07;76.36;101412.97;5022513;28;20219;-44
2023/04/29 08:29:53;;;;;;;7.95;6.97;;;;;;;10.27;76.50;101425.81;5035299;28;20180;-46
2023/04/29 08:32:19;;;;;;;7.70;6.25;;;;;;;10.31;76.64;101422.16;5036942;28;20198;-48
2023/04/29 08:34:44;;;;;;;9.48;6.78;;;;;;;10.23;76.50;101430.38;5034044;28;20245;-43
2023/04/29 08:37:10;;;;;;;10.30;7.10;;;;;;;10.69;77.23;101436.25;5042443;28;20624;-44
2023/04/29 08:39:36;;;;;;;8.88;7.03;;;;;;;10.88;77.26;101429.44;5021943;28;20245;-42
2023/04/29 08:42:08;;;;;;;8.35;6.88;;;;;;;11.09;77.31;101443.13;5032663;28;20678;-44
2023/04/29 08:44:35;;;;;;;8.05;6.97;;;;;;;11.43;77.03;101439.38;5028784;28;20187;-44
2023/04/29 08:47:01;;;;;;;10.13;7.15;;;;;;;11.75;76.27;101436.53;5028491;28;20214;-43
2023/04/29 08:49:32;;;;;;;8.10;6.57;;;;;;;11.95;74.78;101424.28;5033608;28;20203;-44
2023/04/29 08:51:58;;;;;;;7.53;6.32;;;;;;;12.23;73.32;101418.81;5033981;28;20200;-45
2023/04/29 08:54:23;;;;;;;8.27;6.22;;;;;;;11.60;71.26;101401.28;5032252;28;20222;-43
2023/04/29 08:56:50;;;;;;;8.65;6.45;;;;;;;11.55;71.12;101388.88;5023717;28;20187;-43
2023/04/29 08:59:17;;;;;;;8.93;6.35;;;;;;;11.43;70.20;101388.41;5023344;28;20266;-45
2023/04/29 09:01:49;;;;;;;10.25;6.40;;;;;;;11.74;70.50;101393.63;5033755;28;20287;-45
2023/04/29 09:04:26;;;;;;;9.32;6.50;;;;;;;11.76;69.03;101391.75;5032737;28;20180;-46
2023/04/29 09:06:55;;;;;;;6.43;5.80;;;;;;;12.94;68.71;101391.97;5022720;28;20563;-47
2023/04/29 09:09:23;;;;;;;11.55;7.15;;;;;;;13.39;68.09;101391.97;5038954;28;20189;-45
2023/04/29 09:11:49;;;;;;;8.68;6.40;;;;;;;12.40;67.04;101374.31;5033317;28;20548;-45
2023/04/29 09:14:15;;;;;;;9.20;6.65;;;;;;;11.80;67.53;101379.13;5026715;28;20290;-47
2023/04/29 09:16:40;;;;;;;9.02;5.93;;;;;;;12.18;68.31;101393.94;5021060;28;20291;-47
2023/04/29 09:19:06;;;;;;;7.80;6.30;;;;;;;13.21;68.64;101414.22;5030473;28;20184;-44
2023/04/29 09:21:32;;;;;;;10.90;6.10;;;;;;;14.10;67.29;101388.09;5034906;28;20199;-44
2023/04/29 09:24:02;;;;;;;8.88;6.68;;;;;;;14.04;65.48;101382.97;5030443;28;20714;-48
2023/04/29 09:26:41;;;;;;;7.72;6.30;;;;;;;14.67;64.13;101367.59;5026650;28;20667;-45
2023/04/29 09:29:12;;;;;;;8.95;6.40;;;;;;;14.32;62.71;101356.59;5036288;28;20215;-48
2023/04/29 09:31:38;;;;;;;6.78;5.70;;;;;;;14.82;63.24;101365.97;5036752;28;20196;-44
2023/04/29 09:34:04;;;;;;;10.70;6.57;;;;;;;15.11;62.83;101363.69;5030636;28;20173;-47
2023/04/29 09:36:36;;;;;;;6.88;6.18;;;;;;;14.81;61.74;101353.44;5029739;28;20188;-44
2023/04/29 09:39:10;;;;;;;8.15;6.82;;;;;;;14.48;62.02;101347.78;5038250;28;20217;-47
2023/04/29 09:41:38;;;;;;;7.35;6.65;;;;;;;15.01;61.97;101356.06;5025854;28;20211;-47
2023/04/29 09:44:04;;;;;;;8.57;7.43;;;;;;;14.66;60.66;101338.84;5031327;28;20195;-42
2023/04/29 09:46:32;;;;;;;10.63;6.60;;;;;;;14.28;61.26;101354.06;5030970;28;20183;-45
2023/04/29 09:48:58;;;;;;;10.00;6.38;;;;;;;14.93;61.57;101357.38;5035998;28;20233;-47
2023/04/29 09:51:23;;;;;;;8.10;7.22;;;;;;;14.51;62.16;101366.50;5033001;28;20690;-41
2023/04/29 09:53:49;;;;;;;9.15;7.90;;;;;;;13.18;63.16;101382.06;5024711;28;20172;-44
2023/04/29 09:56:15;;;;;;;9.82;7.85;;;;;;;13.11;64.26;101388.63;5034256;28;20185;-43
2023/04/29 09:58:40;;;;;;;9.63;8.27;;;;;;;12.72;65.33;101392.78;5032491;28;20718;-47
2023/04/29 10:01:07;;;;;;;11.18;7.88;;;;;;;12.75;65.91;101398.06;5025735;28;20200;-48
2023/04/29 10:03:34;;;;;;;10.32;8.05;;;;;;;12.54;64.91;101385.44;5030089;28;20180;-48
2023/04/29 10:06:01;;;;;;;11.48;8.38;;;;;;;13.03;64.69;101396.13;5035230;28;20186;-41
2023/04/29 10:08:31;;;;;;;8.90;7.95;;;;;;;13.03;64.43;101385.34;5042485;28;20220;-45
2023/04/29 10:11:02;;;;;;;9.65;8.38;;;;;;;13.11;65.02;101396.69;5037355;28;20197;-41
2023/04/29 10:13:28;;;;;;;13.80;8.52;;;;;;;13.13;64.52;101393.00;5021935;28;20276;-43
2023/04/29 10:16:31;;;;;;;9.57;7.80;;;;;;;12.84;64.46;101396.84;5033068;28;20628;-47
2023/04/29 10:19:02;;;;;;;10.73;8.40;;;;;;;13.05;65.38;101400.50;5037066;28;20188;-49
2023/04/29 10:21:32;;;;;;;12.80;8.70;;;;;;;13.07;66.26;101411.19;5031290;28;20289;-44
2023/04/29 10:24:00;;;;;;;9.00;8.07;;;;;;;13.06;66.93;101417.53;5037985;28;20191;-43
2023/04/29 10:26:28;;;;;;;9.38;8.30;;;;;;;12.72;66.02;101414.31;5027165;28;20196;-42
2023/04/29 10:28:55;;;;;;;10.35;8.35;;;;;;;12.70;65.72;101409.94;5026857;28;20283;-45
2023/04/29 10:31:21;;;;;;;9.20;7.57;;;;;;;13.23;66.00;101417.75;5028268;28;20239;-44
2023/04/29 10:33:48;;;;;;;10.63;7.45;;;;;;;14.17;64.06;101400.38;5029274;28;20226;-45
2023/04/29 10:36:14;;;;;;;9.70;7.10;;;;;;;14.25;61.91;101368.56;5035932;28;20176;-47
2023/04/29 10:38:48;;;;;;;9.18;7.15;;;;;;;14.61;59.98;101355.25;5028546;28;20255;-46
2023/04/29 10:41:23;;;;;;;9.27;6.90;;;;;;;15.08;59.13;101353.06;5022186;28;20207;-46
2023/04/29 10:43:50;;;;;;;9.52;6.93;;;;;;;14.82;58.92;101341.69;5038367;28;20168;-42
2023/04/29 10:46:16;;;;;;;7.68;6.90;;;;;;;14.88;58.74;101340.53;5032763;28;20184;-43
2023/04/29 10:48:45;;;;;;;9.93;7.03;;;;;;;15.32;57.87;101337.47;5031096;28;20192;-42
2023/04/29 10:51:11;;;;;;;8.45;6.88;;;;;;;15.63;57.59;101326.88;5024337;28;20238;-46
2023/04/29 10:53:59;;;;;;;9.27;6.80;;;;;;;15.48;57.55;101335.78;5039348;28;20179;-44
2023/04/29 10:56:54;;;;;;;9.38;6.75;;;;;;;15.80;56.43;101322.44;5032937;28;20195;-43
2023/04/29 10:59:40;;;;;;;7.95;6.90;;;;;;;15.84;56.78;101318.63;5013713;28;20191;-43
2023/04/29 11:02:05;;;;;;;7.50;6.70;;;;;;;15.38;57.00;101326.38;5019151;28;20242;-46
2023/04/29 11:04:31;;;;;;;7.65;6.70;;;;;;;15.90;56.08;101310.22;5039377;28;20188;-44
2023/04/29 11:06:58;;;;;;;10.23;6.63;;;;;;;15.58;56.72;101323.53;5036574;28;20266;-47
2023/04/29 11:09:29;;;;;;;8.73;6.25;;;;;;;16.06;56.06;101305.72;5030998;28;20561;-45
2023/04/29 11:12:02;;;;;;;7.00;6.30;;;;;;;16.16;55.26;101302.53;5037337;28;20284;-43
2023/04/29 11:14:30;;;;;;;7.65;5.78;;;;;;;16.17;54.34;101288.94;5033366;28;20255;-43
2023/04/29 11:16:58;;;;;;;7.15;5.85;;;;;;;16.22;53.70;101281.47;5030938;28;20635;-43
2023/04/29 11:19:35;;;;;;;6.80;6.10;;;;;;;15.86;54.23;101289.72;5027205;28;20271;-45
2023/04/29 11:22:23;;;;;;;5.90;5.28;;;;;;;15.24;54.30;101286.59;5038784;28;20210;-43
2023/04/29 11:25:04;;;;;;;6.03;5.32;;;;;;;15.05;54.07;101278.53;5042914;28;20185;-42
2023/04/29 11:27:32;;;;;;;6.90;5.55;;;;;;;15.23;54.56;101288.38;5023691;28;20685;-46
2023/04/29 11:29:59;;;;;;;6.22;4.88;;;;;;;15.19;55.00;101297.59;5035278;28;20681;-47
2023/04/29 11:32:27;;;;;;;7.05;5.18;;;;;;;15.69;54.52;101309.47;5046318;28;20689;-45
2023/04/29 11:34:53;;;;;;;4.88;4.45;;;;;;;15.28;53.37;101287.28;5030783;28;20591;-42
2023/04/29 11:37:25;;;;;;;7.10;4.82;;;;;;;15.48;53.99;101300.66;5027715;28;20181;-44
2023/04/29 11:39:58;;;;;;;5.70;4.43;;;;;;;15.39;53.85;101303.81;5027400;28;20181;-44
2023/04/29 11:42:23;;;;;;;5.45;4.90;;;;;;;15.88;54.36;101316.66;5030647;28;20178;-42